Terminal Aerodrome Forecast
Issued by NWS

Home | Current Version | Previous Version | Text Only | Print | Product List | Glossary On
Versions: 1 2 3 4 5 6 7 8 9 10 11 12 13 14 15 16 17 18
000
FTUS43 KIND 230500
TAFHUF
TAF
KHUF 230532Z 2306/2406 VRB02KT P6SM SKC
     FM230900 00000KT 2SM BR MIFG SKC
     FM231400 19005KT P6SM SCT250
     FM231900 21005KT P6SM BKN200
     FM240500 18002KT P6SM BKN080=

USA.gov is the U.S. government's official web portal to all federal, state and local government web resources and services.